sensor_id;sensor_type;location;lat;lon;timestamp;pressure;altitude;pressure_sealevel;temperature;humidity
1832;BME280;1680;48.106;11.708;2022-12-18T00:01:59;96555.06;;;-2.68;100.00
1832;BME280;1680;48.106;11.708;2022-12-18T00:04:27;96555.72;;;-2.77;100.00
1832;BME280;1680;48.106;11.708;2022-12-18T00:06:54;96543.50;;;-2.85;100.00
1832;BME280;1680;48.106;11.708;2022-12-18T00:09:22;96552.25;;;-2.76;100.00
1832;BME280;1680;48.106;11.708;2022-12-18T00:11:49;96556.44;;;-2.97;100.00
1832;BME280;1680;48.106;11.708;2022-12-18T00:14:18;96540.00;;;-3.05;100.00
1832;BME280;1680;48.106;11.708;2022-12-18T00:16:46;96540.81;;;-2.83;100.00
1832;BME280;1680;48.106;11.708;2022-12-18T00:19:18;96536.28;;;-2.80;100.00
1832;BME280;1680;48.106;11.708;2022-12-18T00:21:46;96546.91;;;-2.95;100.00
1832;BME280;1680;48.106;11.708;2022-12-18T00:24:13;96540.59;;;-2.80;100.00
1832;BME280;1680;48.106;11.708;2022-12-18T00:26:40;96557.13;;;-3.06;100.00
1832;BME280;1680;48.106;11.708;2022-12-18T00:29:10;96554.56;;;-3.06;100.00
1832;BME280;1680;48.106;11.708;2022-12-18T00:31:39;96542.66;;;-3.18;100.00
1832;BME280;1680;48.106;11.708;2022-12-18T00:34:09;96548.28;;;-2.91;100.00
1832;BME280;1680;48.106;11.708;2022-12-18T00:36:38;96543.13;;;-2.91;100.00
1832;BME280;1680;48.106;11.708;2022-12-18T00:39:07;96555.88;;;-3.00;100.00
1832;BME280;1680;48.106;11.708;2022-12-18T00:41:34;96565.66;;;-3.05;100.00
1832;BME280;1680;48.106;11.708;2022-12-18T00:44:19;96570.78;;;-2.94;100.00
1832;BME280;1680;48.106;11.708;2022-12-18T00:46:47;96582.09;;;-2.86;100.00
1832;BME280;1680;48.106;11.708;2022-12-18T00:49:16;96577.69;;;-2.84;100.00
1832;BME280;1680;48.106;11.708;2022-12-18T00:51:45;96563.94;;;-2.94;100.00
1832;BME280;1680;48.106;11.708;2022-12-18T00:54:12;96561.59;;;-2.97;100.00
1832;BME280;1680;48.106;11.708;2022-12-18T00:56:41;96570.69;;;-2.93;100.00
1832;BME280;1680;48.106;11.708;2022-12-18T00:59:08;96565.31;;;-3.01;100.00
1832;BME280;1680;48.106;11.708;2022-12-18T01:01:35;96583.34;;;-3.13;100.00
1832;BME280;1680;48.106;11.708;2022-12-18T01:04:03;96582.31;;;-3.11;100.00
1832;BME280;1680;48.106;11.708;2022-12-18T01:06:30;96590.25;;;-3.03;100.00
1832;BME280;1680;48.106;11.708;2022-12-18T01:08:58;96584.31;;;-3.03;100.00
1832;BME280;1680;48.106;11.708;2022-12-18T01:11:26;96527.03;;;-3.26;100.00
1832;BME280;1680;48.106;11.708;2022-12-18T01:13:53;96576.28;;;-2.99;100.00
1832;BME280;1680;48.106;11.708;2022-12-18T01:16:21;96583.03;;;-3.09;100.00
1832;BME280;1680;48.106;11.708;2022-12-18T01:18:51;96544.72;;;-3.34;100.00
1832;BME280;1680;48.106;11.708;2022-12-18T01:21:19;96587.22;;;-3.08;100.00
1832;BME280;1680;48.106;11.708;2022-12-18T01:23:51;96599.81;;;-3.05;100.00
1832;BME280;1680;48.106;11.708;2022-12-18T01:26:20;96604.94;;;-3.05;100.00
1832;BME280;1680;48.106;11.708;2022-12-18T01:28:48;96610.53;;;-3.00;100.00
1832;BME280;1680;48.106;11.708;2022-12-18T01:31:17;96609.34;;;-3.07;100.00
1832;BME280;1680;48.106;11.708;2022-12-18T01:33:45;96621.53;;;-2.87;100.00
1832;BME280;1680;48.106;11.708;2022-12-18T01:36:17;96626.38;;;-3.06;100.00
1832;BME280;1680;48.106;11.708;2022-12-18T01:38:45;96606.59;;;-2.93;100.00
1832;BME280;1680;48.106;11.708;2022-12-18T01:41:13;96635.88;;;-2.85;100.00
1832;BME280;1680;48.106;11.708;2022-12-18T01:43:44;96634.69;;;-2.91;100.00
1832;BME280;1680;48.106;11.708;2022-12-18T01:46:11;96642.63;;;-2.84;100.00
1832;BME280;1680;48.106;11.708;2022-12-18T01:48:39;96641.84;;;-2.84;100.00
1832;BME280;1680;48.106;11.708;2022-12-18T01:51:09;96636.13;;;-2.88;100.00
1832;BME280;1680;48.106;11.708;2022-12-18T01:53:39;96641.34;;;-2.89;100.00
1832;BME280;1680;48.106;11.708;2022-12-18T01:56:08;96629.22;;;-2.98;100.00
1832;BME280;1680;48.106;11.708;2022-12-18T01:58:41;96630.38;;;-2.91;100.00
1832;BME280;1680;48.106;11.708;2022-12-18T02:01:12;96644.41;;;-2.84;100.00
1832;BME280;1680;48.106;11.708;2022-12-18T02:03:41;96632.38;;;-2.84;100.00
1832;BME280;1680;48.106;11.708;2022-12-18T02:06:12;96635.06;;;-2.85;100.00
1832;BME280;1680;48.106;11.708;2022-12-18T02:09:02;96637.63;;;-2.74;100.00
1832;BME280;1680;48.106;11.708;2022-12-18T02:11:40;96626.88;;;-2.90;100.00
1832;BME280;1680;48.106;11.708;2022-12-18T02:14:18;96621.03;;;-2.92;100.00
1832;BME280;1680;48.106;11.708;2022-12-18T02:16:56;96608.22;;;-2.92;100.00
1832;BME280;1680;48.106;11.708;2022-12-18T02:19:53;96629.13;;;-2.86;100.00
1832;BME280;1680;48.106;11.708;2022-12-18T02:22:30;96625.72;;;-2.86;100.00
1832;BME280;1680;48.106;11.708;2022-12-18T02:25:13;96624.00;;;-2.86;100.00
1832;BME280;1680;48.106;11.708;2022-12-18T02:27:48;96620.84;;;-2.78;100.00
1832;BME280;1680;48.106;11.708;2022-12-18T02:30:16;96625.72;;;-2.75;100.00
1832;BME280;1680;48.106;11.708;2022-12-18T02:32:47;96619.22;;;-2.79;100.00
1832;BME280;1680;48.106;11.708;2022-12-18T02:35:20;96616.16;;;-2.73;100.00
1832;BME280;1680;48.106;11.708;2022-12-18T02:37:49;96623.88;;;-2.73;100.00
1832;BME280;1680;48.106;11.708;2022-12-18T02:40:18;96616.38;;;-2.87;100.00
1832;BME280;1680;48.106;11.708;2022-12-18T02:42:47;96587.22;;;-3.08;100.00
1832;BME280;1680;48.106;11.708;2022-12-18T02:45:14;96614.97;;;-2.91;100.00
1832;BME280;1680;48.106;11.708;2022-12-18T02:47:43;96617.44;;;-3.00;100.00
1832;BME280;1680;48.106;11.708;2022-12-18T02:50:19;96614.06;;;-2.90;100.00
1832;BME280;1680;48.106;11.708;2022-12-18T02:52:55;96609.75;;;-2.79;100.00
1832;BME280;1680;48.106;11.708;2022-12-18T02:55:36;96609.19;;;-2.82;100.00
1832;BME280;1680;48.106;11.708;2022-12-18T02:58:14;96614.53;;;-2.85;100.00
1832;BME280;1680;48.106;11.708;2022-12-18T03:00:47;96616.38;;;-2.87;100.00
1832;BME280;1680;48.106;11.708;2022-12-18T03:03:21;96614.66;;;-2.76;100.00
1832;BME280;1680;48.106;11.708;2022-12-18T03:05:53;96623.03;;;-2.85;100.00
1832;BME280;1680;48.106;11.708;2022-12-18T03:08:26;96596.78;;;-3.10;100.00
1832;BME280;1680;48.106;11.708;2022-12-18T03:10:58;96620.00;;;-2.89;100.00
1832;BME280;1680;48.106;11.708;2022-12-18T03:13:32;96619.09;;;-2.88;100.00
1832;BME280;1680;48.106;11.708;2022-12-18T03:16:01;96603.06;;;-2.92;100.00
1832;BME280;1680;48.106;11.708;2022-12-18T03:18:32;96611.97;;;-2.85;100.00
1832;BME280;1680;48.106;11.708;2022-12-18T03:21:05;96599.94;;;-2.95;100.00
1832;BME280;1680;48.106;11.708;2022-12-18T03:23:35;96617.91;;;-2.85;100.00
1832;BME280;1680;48.106;11.708;2022-12-18T03:26:06;96615.47;;;-2.75;100.00
1832;BME280;1680;48.106;11.708;2022-12-18T03:28:40;96606.38;;;-2.79;100.00
1832;BME280;1680;48.106;11.708;2022-12-18T03:31:10;96616.28;;;-2.75;100.00
1832;BME280;1680;48.106;11.708;2022-12-18T03:33:42;96611.16;;;-2.75;100.00
1832;BME280;1680;48.106;11.708;2022-12-18T03:36:12;96603.69;;;-2.78;100.00
1832;BME280;1680;48.106;11.708;2022-12-18T03:38:40;96603.34;;;-2.84;100.00
1832;BME280;1680;48.106;11.708;2022-12-18T03:41:13;96607.06;;;-2.88;100.00
1832;BME280;1680;48.106;11.708;2022-12-18T03:43:49;96603.34;;;-2.95;100.00
1832;BME280;1680;48.106;11.708;2022-12-18T03:46:24;96611.53;;;-2.79;100.00
1832;BME280;1680;48.106;11.708;2022-12-18T03:48:59;96614.97;;;-2.91;100.00
1832;BME280;1680;48.106;11.708;2022-12-18T03:51:34;96613.97;;;-2.88;100.00
1832;BME280;1680;48.106;11.708;2022-12-18T03:54:05;96626.44;;;-2.84;100.00
1832;BME280;1680;48.106;11.708;2022-12-18T03:56:37;96622.94;;;-2.61;100.00
1832;BME280;1680;48.106;11.708;2022-12-18T03:59:08;96634.63;;;-2.68;100.00
1832;BME280;1680;48.106;11.708;2022-12-18T04:01:43;96619.22;;;-2.68;100.00
1832;BME280;1680;48.106;11.708;2022-12-18T04:04:14;96608.03;;;-2.78;100.00
1832;BME280;1680;48.106;11.708;2022-12-18T04:06:43;96615.47;;;-2.75;100.00
1832;BME280;1680;48.106;11.708;2022-12-18T04:09:11;96619.44;;;-2.71;100.00
1832;BME280;1680;48.106;11.708;2022-12-18T04:11:39;96632.50;;;-2.74;100.00
1832;BME280;1680;48.106;11.708;2022-12-18T04:14:08;96626.34;;;-2.72;100.00
1832;BME280;1680;48.106;11.708;2022-12-18T04:16:36;96623.41;;;-2.67;100.00
1832;BME280;1680;48.106;11.708;2022-12-18T04:19:03;96625.53;;;-2.50;100.00
1832;BME280;1680;48.106;11.708;2022-12-18T04:21:30;96618.50;;;-2.70;100.00
1832;BME280;1680;48.106;11.708;2022-12-18T04:23:57;96628.78;;;-2.70;100.00
1832;BME280;1680;48.106;11.708;2022-12-18T04:26:24;96629.25;;;-2.65;100.00
1832;BME280;1680;48.106;11.708;2022-12-18T04:28:51;96623.28;;;-2.77;100.00
1832;BME280;1680;48.106;11.708;2022-12-18T04:31:20;96626.34;;;-2.61;100.00
1832;BME280;1680;48.106;11.708;2022-12-18T04:33:47;96629.72;;;-2.71;100.00
1832;BME280;1680;48.106;11.708;2022-12-18T04:36:14;96624.56;;;-2.71;100.00
1832;BME280;1680;48.106;11.708;2022-12-18T04:38:41;96642.53;;;-2.71;100.00
1832;BME280;1680;48.106;11.708;2022-12-18T04:41:09;96630.72;;;-2.85;100.00
1832;BME280;1680;48.106;11.708;2022-12-18T04:43:37;96607.75;;;-2.86;100.00
1832;BME280;1680;48.106;11.708;2022-12-18T04:46:05;96626.00;;;-2.78;100.00
1832;BME280;1680;48.106;11.708;2022-12-18T04:48:34;96629.22;;;-2.76;100.00
1832;BME280;1680;48.106;11.708;2022-12-18T04:51:01;96629.22;;;-2.76;100.00
1832;BME280;1680;48.106;11.708;2022-12-18T04:53:29;96641.97;;;-2.75;100.00
1832;BME280;1680;48.106;11.708;2022-12-18T04:56:04;96651.00;;;-3.03;100.00
1832;BME280;1680;48.106;11.708;2022-12-18T04:58:31;96658.38;;;-2.88;100.00
1832;BME280;1680;48.106;11.708;2022-12-18T05:00:59;96639.00;;;-2.92;100.00
1832;BME280;1680;48.106;11.708;2022-12-18T05:03:27;96655.59;;;-2.85;100.00
1832;BME280;1680;48.106;11.708;2022-12-18T05:05:56;96631.78;;;-2.87;100.00
1832;BME280;1680;48.106;11.708;2022-12-18T05:08:23;96641.59;;;-2.81;100.00
1832;BME280;1680;48.106;11.708;2022-12-18T05:10:58;96641.47;;;-2.80;100.00
1832;BME280;1680;48.106;11.708;2022-12-18T05:13:25;96661.91;;;-2.78;100.00
1832;BME280;1680;48.106;11.708;2022-12-18T05:15:53;96660.72;;;-2.85;100.00
1832;BME280;1680;48.106;11.708;2022-12-18T05:18:20;96665.63;;;-2.82;100.00
1832;BME280;1680;48.106;11.708;2022-12-18T05:20:47;96677.06;;;-2.75;100.00
1832;BME280;1680;48.106;11.708;2022-12-18T05:23:17;96668.28;;;-2.84;100.00
1832;BME280;1680;48.106;11.708;2022-12-18T05:25:47;96667.03;;;-2.78;100.00
1832;BME280;1680;48.106;11.708;2022-12-18T05:28:14;96663.91;;;-2.71;100.00
1832;BME280;1680;48.106;11.708;2022-12-18T05:30:42;96663.22;;;-2.62;100.00
1832;BME280;1680;48.106;11.708;2022-12-18T05:33:11;96663.91;;;-2.60;100.00
1832;BME280;1680;48.106;11.708;2022-12-18T05:35:38;96660.06;;;-2.54;100.00
1832;BME280;1680;48.106;11.708;2022-12-18T05:38:05;96664.72;;;-2.70;100.00
1832;BME280;1680;48.106;11.708;2022-12-18T05:40:34;96668.44;;;-2.74;100.00
1832;BME280;1680;48.106;11.708;2022-12-18T05:43:01;96673.69;;;-2.87;100.00
1832;BME280;1680;48.106;11.708;2022-12-18T05:45:29;96679.16;;;-2.80;100.00
1832;BME280;1680;48.106;11.708;2022-12-18T05:47:56;96686.59;;;-2.88;100.00
1832;BME280;1680;48.106;11.708;2022-12-18T05:50:24;96682.06;;;-2.85;100.00
1832;BME280;1680;48.106;11.708;2022-12-18T05:52:51;96677.75;;;-2.84;100.00
1832;BME280;1680;48.106;11.708;2022-12-18T05:55:18;96666.91;;;-2.88;100.00
1832;BME280;1680;48.106;11.708;2022-12-18T05:57:47;96676.41;;;-1.47;100.00
1832;BME280;1680;48.106;11.708;2022-12-18T06:00:15;96681.53;;;-1.90;100.00
1832;BME280;1680;48.106;11.708;2022-12-18T06:02:51;96690.91;;;-2.21;100.00
1832;BME280;1680;48.106;11.708;2022-12-18T06:05:18;96699.28;;;-2.30;100.00
1832;BME280;1680;48.106;11.708;2022-12-18T06:07:45;96690.66;;;-2.51;100.00
1832;BME280;1680;48.106;11.708;2022-12-18T06:10:12;96702.19;;;-2.57;100.00
1832;BME280;1680;48.106;11.708;2022-12-18T06:12:39;96648.03;;;-2.87;100.00
1832;BME280;1680;48.106;11.708;2022-12-18T06:15:08;96692.25;;;-2.72;100.00
1832;BME280;1680;48.106;11.708;2022-12-18T06:17:36;96698.66;;;-2.78;100.00
1832;BME280;1680;48.106;11.708;2022-12-18T06:20:04;96678.13;;;-2.78;100.00
1832;BME280;1680;48.106;11.708;2022-12-18T06:22:32;96701.91;;;-2.76;100.00
1832;BME280;1680;48.106;11.708;2022-12-18T06:25:00;96691.16;;;-2.91;100.00
1832;BME280;1680;48.106;11.708;2022-12-18T06:27:27;96698.06;;;-2.81;100.00
1832;BME280;1680;48.106;11.708;2022-12-18T06:29:54;96697.34;;;-2.83;100.00
1832;BME280;1680;48.106;11.708;2022-12-18T06:32:22;96697.56;;;-2.97;100.00
1832;BME280;1680;48.106;11.708;2022-12-18T06:34:49;96709.97;;;-2.80;100.00
1832;BME280;1680;48.106;11.708;2022-12-18T06:37:17;96705.72;;;-2.92;100.00
1832;BME280;1680;48.106;11.708;2022-12-18T06:39:44;96705.97;;;-2.95;100.00
1832;BME280;1680;48.106;11.708;2022-12-18T06:42:11;96705.28;;;-2.86;100.00
1832;BME280;1680;48.106;11.708;2022-12-18T06:44:38;96717.16;;;-2.85;100.00
1832;BME280;1680;48.106;11.708;2022-12-18T06:47:06;96689.16;;;-2.99;100.00
1832;BME280;1680;48.106;11.708;2022-12-18T06:49:34;96711.25;;;-2.86;100.00
1832;BME280;1680;48.106;11.708;2022-12-18T06:52:01;96717.41;;;-2.77;100.00
1832;BME280;1680;48.106;11.708;2022-12-18T06:54:28;96709.09;;;-2.91;100.00
1832;BME280;1680;48.106;11.708;2022-12-18T06:56:55;96727.22;;;-2.82;100.00
1832;BME280;1680;48.106;11.708;2022-12-18T06:59:23;96729.06;;;-2.84;100.00
1832;BME280;1680;48.106;11.708;2022-12-18T07:01:50;96718.44;;;-2.90;100.00
1832;BME280;1680;48.106;11.708;2022-12-18T07:04:17;96733.53;;;-2.75;100.00
1832;BME280;1680;48.106;11.708;2022-12-18T07:06:45;96740.66;;;-2.68;100.00
1832;BME280;1680;48.106;11.708;2022-12-18T07:09:13;96740.25;;;-2.96;100.00
1832;BME280;1680;48.106;11.708;2022-12-18T07:11:40;96748.34;;;-2.79;100.00
1832;BME280;1680;48.106;11.708;2022-12-18T07:14:07;96724.75;;;-2.84;100.00
1832;BME280;1680;48.106;11.708;2022-12-18T07:16:34;96748.25;;;-2.66;100.00
1832;BME280;1680;48.106;11.708;2022-12-18T07:19:01;96746.31;;;-2.86;100.00
1832;BME280;1680;48.106;11.708;2022-12-18T07:21:28;96753.31;;;-2.88;100.00
1832;BME280;1680;48.106;11.708;2022-12-18T07:23:57;96753.53;;;-2.91;100.00
1832;BME280;1680;48.106;11.708;2022-12-18T07:26:24;96748.19;;;-2.88;100.00
1832;BME280;1680;48.106;11.708;2022-12-18T07:28:54;96751.47;;;-2.86;100.00
1832;BME280;1680;48.106;11.708;2022-12-18T07:31:23;96759.66;;;-2.81;100.00
1832;BME280;1680;48.106;11.708;2022-12-18T07:33:50;96763.03;;;-2.81;100.00
1832;BME280;1680;48.106;11.708;2022-12-18T07:36:18;96764.50;;;-2.89;100.00
1832;BME280;1680;48.106;11.708;2022-12-18T07:38:46;96771.50;;;-2.91;100.00
1832;BME280;1680;48.106;11.708;2022-12-18T07:41:16;96766.72;;;-2.85;100.00
1832;BME280;1680;48.106;11.708;2022-12-18T07:43:44;96772.47;;;-2.81;100.00
1832;BME280;1680;48.106;11.708;2022-12-18T07:46:12;96756.38;;;-2.83;100.00
1832;BME280;1680;48.106;11.708;2022-12-18T07:48:40;96773.13;;;-2.90;100.00
1832;BME280;1680;48.106;11.708;2022-12-18T07:51:07;96759.19;;;-2.75;100.00
1832;BME280;1680;48.106;11.708;2022-12-18T07:53:42;96760.38;;;-2.79;100.00
1832;BME280;1680;48.106;11.708;2022-12-18T07:56:11;96757.47;;;-2.64;100.00
1832;BME280;1680;48.106;11.708;2022-12-18T07:58:40;96758.44;;;-2.54;100.00
1832;BME280;1680;48.106;11.708;2022-12-18T08:01:09;96759.13;;;-2.63;100.00
1832;BME280;1680;48.106;11.708;2022-12-18T08:03:38;96765.06;;;-2.62;100.00
1832;BME280;1680;48.106;11.708;2022-12-18T08:06:07;96756.88;;;-2.67;100.00
1832;BME280;1680;48.106;11.708;2022-12-18T08:08:35;96762.50;;;-2.62;100.00
1832;BME280;1680;48.106;11.708;2022-12-18T08:11:03;96762.00;;;-2.78;100.00
1832;BME280;1680;48.106;11.708;2022-12-18T08:13:30;96769.03;;;-2.69;100.00
1832;BME280;1680;48.106;11.708;2022-12-18T08:16:00;96761.81;;;-2.64;100.00
1832;BME280;1680;48.106;11.708;2022-12-18T08:18:27;96761.81;;;-2.64;100.00
1832;BME280;1680;48.106;11.708;2022-12-18T08:20:55;96772.88;;;-2.64;100.00
1832;BME280;1680;48.106;11.708;2022-12-18T08:23:23;96784.00;;;-2.52;100.00
1832;BME280;1680;48.106;11.708;2022-12-18T08:25:50;96789.00;;;-2.51;100.00
1832;BME280;1680;48.106;11.708;2022-12-18T08:28:17;96783.06;;;-2.51;100.00
1832;BME280;1680;48.106;11.708;2022-12-18T08:30:44;96788.25;;;-2.29;100.00
1832;BME280;1680;48.106;11.708;2022-12-18T08:33:13;96798.84;;;-2.45;100.00
1832;BME280;1680;48.106;11.708;2022-12-18T08:35:40;96790.66;;;-2.50;100.00
1832;BME280;1680;48.106;11.708;2022-12-18T08:38:07;96777.94;;;-2.51;100.00
1832;BME280;1680;48.106;11.708;2022-12-18T08:40:34;96789.38;;;-2.44;100.00
1832;BME280;1680;48.106;11.708;2022-12-18T08:43:01;96789.66;;;-2.36;100.00
1832;BME280;1680;48.106;11.708;2022-12-18T08:45:53;96790.81;;;-2.40;100.00
1832;BME280;1680;48.106;11.708;2022-12-18T08:48:23;96784.72;;;-2.39;100.00
1832;BME280;1680;48.106;11.708;2022-12-18T08:50:59;96797.72;;;-2.30;100.00
1832;BME280;1680;48.106;11.708;2022-12-18T08:53:28;96777.25;;;-2.42;100.00
1832;BME280;1680;48.106;11.708;2022-12-18T08:55:57;96800.13;;;-2.39;100.00
1832;BME280;1680;48.106;11.708;2022-12-18T08:58:31;96807.63;;;-2.36;99.69
1832;BME280;1680;48.106;11.708;2022-12-18T09:01:00;96794.06;;;-2.49;100.00
1832;BME280;1680;48.106;11.708;2022-12-18T09:03:29;96791.22;;;-2.57;99.76
1832;BME280;1680;48.106;11.708;2022-12-18T09:06:01;96795.06;;;-2.52;99.41
1832;BME280;1680;48.106;11.708;2022-12-18T09:08:30;96806.44;;;-2.43;100.00
1832;BME280;1680;48.106;11.708;2022-12-18T09:11:11;96802.94;;;-2.31;100.00
1832;BME280;1680;48.106;11.708;2022-12-18T09:13:42;96768.19;;;-2.35;98.37
1832;BME280;1680;48.106;11.708;2022-12-18T09:16:09;96807.22;;;-2.08;98.53
1832;BME280;1680;48.106;11.708;2022-12-18T09:18:38;96807.06;;;-2.18;98.29
1832;BME280;1680;48.106;11.708;2022-12-18T09:21:19;96807.00;;;-2.05;98.06
1832;BME280;1680;48.106;11.708;2022-12-18T09:23:49;96799.13;;;-2.26;97.73
1832;BME280;1680;48.106;11.708;2022-12-18T09:26:16;96807.63;;;-2.25;98.65
1832;BME280;1680;48.106;11.708;2022-12-18T09:28:44;96799.44;;;-2.41;97.35
1832;BME280;1680;48.106;11.708;2022-12-18T09:31:12;96795.19;;;-2.53;98.30
1832;BME280;1680;48.106;11.708;2022-12-18T09:33:41;96797.59;;;-2.28;97.96
1832;BME280;1680;48.106;11.708;2022-12-18T09:36:17;96800.66;;;-2.12;98.28
1832;BME280;1680;48.106;11.708;2022-12-18T09:38:45;96789.78;;;-2.16;98.67
1832;BME280;1680;48.106;11.708;2022-12-18T09:41:27;96796.06;;;-2.31;97.90
1832;BME280;1680;48.106;11.708;2022-12-18T09:44:01;96795.53;;;-2.12;98.04
1832;BME280;1680;48.106;11.708;2022-12-18T09:46:34;96798.78;;;-1.99;97.22
1832;BME280;1680;48.106;11.708;2022-12-18T09:49:09;96766.09;;;-2.08;97.13
1832;BME280;1680;48.106;11.708;2022-12-18T09:51:58;96808.16;;;-1.77;96.78
1832;BME280;1680;48.106;11.708;2022-12-18T09:54:33;96805.25;;;-1.72;96.59
1832;BME280;1680;48.106;11.708;2022-12-18T09:57:02;96778.13;;;-1.76;95.05
1832;BME280;1680;48.106;11.708;2022-12-18T09:59:34;96794.72;;;-1.69;95.17
1832;BME280;1680;48.106;11.708;2022-12-18T10:02:15;96787.63;;;-1.88;94.25
1832;BME280;1680;48.106;11.708;2022-12-18T10:04:51;96777.31;;;-1.98;95.53
1832;BME280;1680;48.106;11.708;2022-12-18T10:07:29;96785.94;;;-1.99;94.82
1832;BME280;1680;48.106;11.708;2022-12-18T10:10:14;96783.59;;;-2.13;96.42
1832;BME280;1680;48.106;11.708;2022-12-18T10:12:55;96775.19;;;-2.26;96.35
1832;BME280;1680;48.106;11.708;2022-12-18T10:15:31;96766.78;;;-2.28;96.63
1832;BME280;1680;48.106;11.708;2022-12-18T10:18:12;96769.34;;;-2.28;97.04
1832;BME280;1680;48.106;11.708;2022-12-18T10:20:47;96766.78;;;-2.28;97.46
1832;BME280;1680;48.106;11.708;2022-12-18T10:23:20;96767.75;;;-2.18;95.79
1832;BME280;1680;48.106;11.708;2022-12-18T10:25:53;96767.97;;;-2.10;95.95
1832;BME280;1680;48.106;11.708;2022-12-18T10:28:23;96757.91;;;-1.81;94.82
1832;BME280;1680;48.106;11.708;2022-12-18T10:30:51;96757.19;;;-1.72;94.78
1832;BME280;1680;48.106;11.708;2022-12-18T10:33:20;96755.09;;;-1.56;94.48
1832;BME280;1680;48.106;11.708;2022-12-18T10:35:50;96751.13;;;-1.71;92.51
1832;BME280;1680;48.106;11.708;2022-12-18T10:38:22;96756.25;;;-1.49;93.09
1832;BME280;1680;48.106;11.708;2022-12-18T10:40:52;96733.94;;;-1.59;92.17
1832;BME280;1680;48.106;11.708;2022-12-18T10:43:21;96740.00;;;-1.49;92.45
1832;BME280;1680;48.106;11.708;2022-12-18T10:46:05;96729.06;;;-1.84;93.83
1832;BME280;1680;48.106;11.708;2022-12-18T10:48:47;96740.84;;;-1.71;93.18
1832;BME280;1680;48.106;11.708;2022-12-18T10:51:22;96752.06;;;-1.61;93.98
1832;BME280;1680;48.106;11.708;2022-12-18T10:53:55;96746.47;;;-1.66;93.77
1832;BME280;1680;48.106;11.708;2022-12-18T10:56:25;96750.19;;;-1.59;93.36
1832;BME280;1680;48.106;11.708;2022-12-18T10:58:59;96749.31;;;-1.26;100.00
1832;BME280;1680;48.106;11.708;2022-12-18T11:01:28;96752.69;;;-1.26;95.61
1832;BME280;1680;48.106;11.708;2022-12-18T11:04:13;96750.38;;;-1.40;94.06
1832;BME280;1680;48.106;11.708;2022-12-18T11:06:59;96735.88;;;-1.41;93.29
1832;BME280;1680;48.106;11.708;2022-12-18T11:09:30;96740.59;;;-1.46;93.50
1832;BME280;1680;48.106;11.708;2022-12-18T11:11:59;96744.06;;;-1.36;91.66
1832;BME280;1680;48.106;11.708;2022-12-18T11:14:29;96753.38;;;-1.66;92.33
1832;BME280;1680;48.106;11.708;2022-12-18T11:17:00;96757.44;;;-1.86;92.72
1832;BME280;1680;48.106;11.708;2022-12-18T11:19:33;96757.22;;;-1.83;93.38
1832;BME280;1680;48.106;11.708;2022-12-18T11:22:17;96770.31;;;-1.75;93.28
1832;BME280;1680;48.106;11.708;2022-12-18T11:24:52;96736.75;;;-1.73;92.71
1832;BME280;1680;48.106;11.708;2022-12-18T11:27:21;96758.84;;;-1.71;92.10
1832;BME280;1680;48.106;11.708;2022-12-18T11:29:49;96755.44;;;-1.60;93.09
1832;BME280;1680;48.106;11.708;2022-12-18T11:32:33;96758.97;;;-1.50;92.78
1832;BME280;1680;48.106;11.708;2022-12-18T11:35:13;96760.22;;;-1.45;91.80
1832;BME280;1680;48.106;11.708;2022-12-18T11:37:47;96753.88;;;-1.41;92.62
1832;BME280;1680;48.106;11.708;2022-12-18T11:40:22;96758.00;;;-1.38;92.59
1832;BME280;1680;48.106;11.708;2022-12-18T11:42:58;96769.22;;;-1.39;92.92
1832;BME280;1680;48.106;11.708;2022-12-18T11:45:30;96754.50;;;-1.37;92.53
1832;BME280;1680;48.106;11.708;2022-12-18T11:48:03;96733.09;;;-1.49;92.46
1832;BME280;1680;48.106;11.708;2022-12-18T11:50:43;96744.72;;;-1.65;91.88
1832;BME280;1680;48.106;11.708;2022-12-18T11:53:13;96733.72;;;-1.78;92.34
1832;BME280;1680;48.106;11.708;2022-12-18T11:55:47;96734.63;;;-1.57;93.35
1832;BME280;1680;48.106;11.708;2022-12-18T11:58:42;96738.78;;;-1.34;91.93
1832;BME280;1680;48.106;11.708;2022-12-18T12:01:18;96740.28;;;-1.21;90.91
1832;BME280;1680;48.106;11.708;2022-12-18T12:04:15;96738.88;;;-1.14;91.38
1832;BME280;1680;48.106;11.708;2022-12-18T12:06:53;96726.00;;;-1.14;91.68
1832;BME280;1680;48.106;11.708;2022-12-18T12:09:30;96742.66;;;-0.98;91.21
1832;BME280;1680;48.106;11.708;2022-12-18T12:12:23;96736.19;;;-0.92;90.45
1832;BME280;1680;48.106;11.708;2022-12-18T12:15:03;96733.25;;;-0.88;90.23
1832;BME280;1680;48.106;11.708;2022-12-18T12:17:37;96729.16;;;-0.90;89.91
1832;BME280;1680;48.106;11.708;2022-12-18T12:20:12;96728.94;;;-0.87;90.67
1832;BME280;1680;48.106;11.708;2022-12-18T12:22:52;96721.38;;;-0.79;89.62
1832;BME280;1680;48.106;11.708;2022-12-18T12:25:31;96721.81;;;-0.95;90.14
1832;BME280;1680;48.106;11.708;2022-12-18T12:28:11;96728.53;;;-1.03;91.32
1832;BME280;1680;48.106;11.708;2022-12-18T12:30:48;96722.97;;;-1.19;92.14
1832;BME280;1680;48.106;11.708;2022-12-18T12:33:29;96717.81;;;-1.19;91.54
1832;BME280;1680;48.106;11.708;2022-12-18T12:36:06;96701.72;;;-1.32;91.37
1832;BME280;1680;48.106;11.708;2022-12-18T12:38:41;96711.78;;;-1.29;93.26
1832;BME280;1680;48.106;11.708;2022-12-18T12:41:18;96711.47;;;-1.35;92.68
1832;BME280;1680;48.106;11.708;2022-12-18T12:44:07;96694.06;;;-1.43;92.90
1832;BME280;1680;48.106;11.708;2022-12-18T12:46:38;96708.50;;;-1.31;91.44
1832;BME280;1680;48.106;11.708;2022-12-18T12:49:11;96701.97;;;-1.35;92.43
1832;BME280;1680;48.106;11.708;2022-12-18T12:51:40;96708.84;;;-1.24;93.13
1832;BME280;1680;48.106;11.708;2022-12-18T12:54:14;96697.28;;;-1.30;92.42
1832;BME280;1680;48.106;11.708;2022-12-18T12:56:48;96711.59;;;-1.16;92.35
1832;BME280;1680;48.106;11.708;2022-12-18T12:59:24;96710.91;;;-1.18;93.06
1832;BME280;1680;48.106;11.708;2022-12-18T13:02:00;96707.03;;;-1.44;91.86
1832;BME280;1680;48.106;11.708;2022-12-18T13:04:34;96716.50;;;-1.45;92.88
1832;BME280;1680;48.106;11.708;2022-12-18T13:07:06;96705.53;;;-1.47;93.44
1832;BME280;1680;48.106;11.708;2022-12-18T13:10:23;96723.97;;;-1.42;93.09
1832;BME280;1680;48.106;11.708;2022-12-18T13:12:54;96720.06;;;-1.25;93.19
1832;BME280;1680;48.106;11.708;2022-12-18T13:15:31;96727.88;;;-1.16;93.75
1832;BME280;1680;48.106;11.708;2022-12-18T13:18:19;96730.34;;;-1.25;93.23
1832;BME280;1680;48.106;11.708;2022-12-18T13:20:49;96717.38;;;-1.24;93.04
1832;BME280;1680;48.106;11.708;2022-12-18T13:23:34;96716.19;;;-1.20;93.23
1832;BME280;1680;48.106;11.708;2022-12-18T13:29:03;96732.13;;;-1.37;92.73